Time;durP1;ratioP1;P1;durP2;ratioP2;P2;SDS_P1;SDS_P2;PMS_P1;PMS_P2;Temp;Humidity;BMP_temperature;BMP_pressure;BME280_temperature;BME280_humidity;BME280_pressure;Samples;Min_cycle;Max_cycle;Signal;HPM_P1;HPM_P2
2023/08/22 00:02:20;;;;;;;9.30;6.05;;;;;;;;;;5093879;28;20084;-75
2023/08/22 00:04:45;;;;;;;9.43;6.23;;;;;;;;;;5094105;28;20016;-75
2023/08/22 00:07:10;;;;;;;11.17;6.83;;;;;;;;;;5094082;28;20253;-75
2023/08/22 00:09:35;;;;;;;11.43;6.20;;;;;;;;;;5094213;28;20351;-75
2023/08/22 00:12:01;;;;;;;10.10;6.13;;;;;;;;;;5075531;28;20020;-75
2023/08/22 00:14:26;;;;;;;9.57;6.20;;;;;;;;;;5093757;28;20027;-75
2023/08/22 00:16:51;;;;;;;12.03;6.23;;;;;;;;;;5093730;28;20674;-75
2023/08/22 00:19:16;;;;;;;11.60;5.80;;;;;;;;;;5093965;28;20279;-75
2023/08/22 00:21:42;;;;;;;13.57;6.20;;;;;;;;;;5093763;28;20288;-75
2023/08/22 00:24:07;;;;;;;7.57;5.93;;;;;;;;;;5093385;28;20288;-76
2023/08/22 00:26:32;;;;;;;11.70;6.97;;;;;;;;;;5093526;28;20735;-75
2023/08/22 00:28:58;;;;;;;7.70;6.13;;;;;;;;;;5093330;28;20117;-76
2023/08/22 00:31:23;;;;;;;9.13;6.17;;;;;;;;;;5093182;28;20028;-75
2023/08/22 00:33:49;;;;;;;9.45;6.10;;;;;;;;;;5093505;28;20257;-74
2023/08/22 00:36:14;;;;;;;7.60;6.32;;;;;;;;;;5093017;28;20039;-74
2023/08/22 00:38:39;;;;;;;9.60;6.40;;;;;;;;;;5093061;28;20028;-75
2023/08/22 00:41:04;;;;;;;10.57;6.40;;;;;;;;;;5093060;28;20747;-75
2023/08/22 00:43:30;;;;;;;8.90;6.57;;;;;;;;;;5093384;28;20603;-75
2023/08/22 00:45:55;;;;;;;11.90;6.50;;;;;;;;;;5092920;28;20327;-75
2023/08/22 00:48:20;;;;;;;10.70;6.95;;;;;;;;;;5092882;28;20058;-75
2023/08/22 00:50:46;;;;;;;11.27;6.87;;;;;;;;;;5092932;28;20028;-77
2023/08/22 00:53:11;;;;;;;8.27;6.03;;;;;;;;;;5093325;28;20261;-76
2023/08/22 00:55:36;;;;;;;8.75;6.45;;;;;;;;;;5092770;28;20043;-76
2023/08/22 00:58:02;;;;;;;8.95;6.38;;;;;;;;;;5074797;28;20027;-74
2023/08/22 01:00:27;;;;;;;9.82;6.18;;;;;;;;;;5092763;28;20076;-75
2023/08/22 01:02:53;;;;;;;11.23;6.72;;;;;;;;;;5092831;28;20110;-76
2023/08/22 01:05:19;;;;;;;10.63;7.00;;;;;;;;;;5092862;28;20021;-77
2023/08/22 01:07:51;;;;;;;8.60;6.20;;;;;;;;;;5093033;28;20479;-76
2023/08/22 01:10:24;;;;;;;11.68;6.88;;;;;;;;;;5074804;28;20119;-77
2023/08/22 01:12:52;;;;;;;10.13;6.50;;;;;;;;;;5093661;28;20028;-77
2023/08/22 01:15:24;;;;;;;7.40;6.63;;;;;;;;;;5092718;28;20035;-77
2023/08/22 01:17:51;;;;;;;10.40;6.93;;;;;;;;;;5093070;28;20032;-76
2023/08/22 01:20:17;;;;;;;9.00;6.25;;;;;;;;;;5093154;28;20139;-76
2023/08/22 01:22:42;;;;;;;9.27;6.75;;;;;;;;;;5092595;28;20340;-76
2023/08/22 01:25:08;;;;;;;15.00;6.57;;;;;;;;;;5074434;28;20027;-75
2023/08/22 01:27:53;;;;;;;9.73;6.90;;;;;;;;;;5092561;28;20040;-76
2023/08/22 01:30:32;;;;;;;9.75;7.18;;;;;;;;;;5092633;28;20034;-75
2023/08/22 01:33:05;;;;;;;8.25;6.43;;;;;;;;;;5092545;28;20024;-75
2023/08/22 01:35:32;;;;;;;10.13;6.27;;;;;;;;;;5092523;28;20031;-75
2023/08/22 01:37:58;;;;;;;9.73;6.78;;;;;;;;;;5092999;28;20023;-74
2023/08/22 01:40:24;;;;;;;11.07;7.22;;;;;;;;;;5092288;28;20391;-75
2023/08/22 01:42:49;;;;;;;7.78;6.53;;;;;;;;;;5092533;28;20020;-75
2023/08/22 01:45:14;;;;;;;10.38;6.97;;;;;;;;;;5092312;28;20427;-76
2023/08/22 01:47:40;;;;;;;11.43;6.37;;;;;;;;;;5092385;28;20111;-75
2023/08/22 01:50:06;;;;;;;12.43;7.30;;;;;;;;;;5092722;28;20260;-75
2023/08/22 01:52:31;;;;;;;10.40;6.93;;;;;;;;;;5095907;28;20265;-75
2023/08/22 01:54:56;;;;;;;12.45;6.72;;;;;;;;;;5096220;28;20044;-75
2023/08/22 01:57:21;;;;;;;9.93;6.97;;;;;;;;;;5096390;28;20425;-75
2023/08/22 01:59:47;;;;;;;11.65;7.07;;;;;;;;;;5096517;28;20089;-76
2023/08/22 02:02:12;;;;;;;9.63;7.23;;;;;;;;;;5096241;28;20078;-75
2023/08/22 02:04:37;;;;;;;11.75;7.07;;;;;;;;;;5095910;28;20265;-77
2023/08/22 02:07:02;;;;;;;11.57;6.93;;;;;;;;;;5077867;28;20028;-75
2023/08/22 02:09:28;;;;;;;11.70;7.50;;;;;;;;;;5096184;28;20302;-76
2023/08/22 02:11:53;;;;;;;8.87;7.07;;;;;;;;;;5095870;28;20275;-74
2023/08/22 02:14:18;;;;;;;8.10;6.83;;;;;;;;;;5095803;28;20723;-75
2023/08/22 02:16:43;;;;;;;9.18;7.30;;;;;;;;;;5095609;28;20347;-74
2023/08/22 02:19:09;;;;;;;10.00;6.97;;;;;;;;;;5095762;28;20035;-74
2023/08/22 02:21:35;;;;;;;9.40;6.85;;;;;;;;;;5095719;28;20271;-76
2023/08/22 02:24:00;;;;;;;9.73;7.38;;;;;;;;;;5095549;28;20032;-77
2023/08/22 02:26:26;;;;;;;11.97;7.40;;;;;;;;;;5096191;28;20507;-75
2023/08/22 02:28:52;;;;;;;11.02;7.18;;;;;;;;;;5095768;28;20267;-76
2023/08/22 02:31:17;;;;;;;10.40;7.50;;;;;;;;;;5077423;28;20115;-76
2023/08/22 02:33:43;;;;;;;9.60;7.22;;;;;;;;;;5095682;28;20051;-76
2023/08/22 02:36:08;;;;;;;10.07;6.93;;;;;;;;;;5095254;28;20024;-76
2023/08/22 02:38:34;;;;;;;10.07;7.32;;;;;;;;;;5077295;28;20303;-76
2023/08/22 02:40:59;;;;;;;11.15;6.93;;;;;;;;;;5077210;28;20036;-76
2023/08/22 02:43:24;;;;;;;10.27;6.80;;;;;;;;;;5095281;28;20529;-75
2023/08/22 02:45:50;;;;;;;12.32;7.82;;;;;;;;;;5095081;28;20103;-75
2023/08/22 02:48:15;;;;;;;9.88;7.57;;;;;;;;;;5095139;28;20135;-75
2023/08/22 02:50:40;;;;;;;11.70;7.30;;;;;;;;;;5095219;28;20470;-75
2023/08/22 02:53:05;;;;;;;11.03;7.57;;;;;;;;;;5095145;28;20028;-76
2023/08/22 02:55:34;;;;;;;11.85;7.80;;;;;;;;;;5095117;28;20261;-75
2023/08/22 02:57:59;;;;;;;11.52;6.88;;;;;;;;;;5095232;28;20051;-75
2023/08/22 03:00:25;;;;;;;10.07;7.60;;;;;;;;;;5094925;28;20101;-75
2023/08/22 03:02:50;;;;;;;9.82;7.03;;;;;;;;;;5075485;28;20261;-75
2023/08/22 03:05:15;;;;;;;8.88;6.93;;;;;;;;;;5094940;28;20420;-74
2023/08/22 03:07:41;;;;;;;9.75;7.03;;;;;;;;;;5095064;28;20027;-75
2023/08/22 03:10:08;;;;;;;11.38;7.20;;;;;;;;;;5094679;28;20042;-76
2023/08/22 03:12:33;;;;;;;9.00;6.80;;;;;;;;;;5094801;28;20058;-75
2023/08/22 03:14:58;;;;;;;10.80;6.78;;;;;;;;;;5094901;28;20523;-73
2023/08/22 03:17:24;;;;;;;9.13;7.23;;;;;;;;;;5094654;28;20058;-74
2023/08/22 03:19:49;;;;;;;9.27;6.93;;;;;;;;;;5094585;28;20257;-77
2023/08/22 03:22:14;;;;;;;10.73;7.03;;;;;;;;;;5094508;28;20257;-75
2023/08/22 03:24:39;;;;;;;9.10;7.28;;;;;;;;;;5094484;28;20367;-75
2023/08/22 03:27:05;;;;;;;9.77;6.73;;;;;;;;;;5094266;28;20024;-75
2023/08/22 03:29:30;;;;;;;8.25;6.60;;;;;;;;;;5094699;28;20256;-76
2023/08/22 03:31:57;;;;;;;9.43;7.10;;;;;;;;;;5094452;28;20395;-76
2023/08/22 03:34:23;;;;;;;11.23;7.40;;;;;;;;;;5076234;28;20257;-75
2023/08/22 03:36:48;;;;;;;8.02;6.93;;;;;;;;;;5094179;28;20395;-75
2023/08/22 03:39:13;;;;;;;9.03;7.00;;;;;;;;;;5076125;28;20024;-75
2023/08/22 03:41:39;;;;;;;13.45;7.80;;;;;;;;;;5094130;28;20291;-76
2023/08/22 03:44:04;;;;;;;10.48;7.20;;;;;;;;;;5094069;28;20017;-77
2023/08/22 03:46:29;;;;;;;9.73;7.40;;;;;;;;;;5075867;28;20020;-77
2023/08/22 03:48:54;;;;;;;10.63;7.10;;;;;;;;;;5075864;28;20028;-77
2023/08/22 03:51:20;;;;;;;9.43;7.30;;;;;;;;;;5093931;28;20641;-77
2023/08/22 03:53:45;;;;;;;9.27;7.53;;;;;;;;;;5094078;28;20261;-77
2023/08/22 03:56:10;;;;;;;9.82;7.05;;;;;;;;;;5093890;28;20463;-77
2023/08/22 03:58:36;;;;;;;9.25;6.82;;;;;;;;;;5093800;28;20032;-76
2023/08/22 04:01:03;;;;;;;11.43;7.67;;;;;;;;;;5075701;28;20117;-75
2023/08/22 04:03:28;;;;;;;10.38;7.05;;;;;;;;;;5075462;28;20305;-76
2023/08/22 04:05:54;;;;;;;11.48;7.50;;;;;;;;;;5093681;28;20028;-77
2023/08/22 04:08:19;;;;;;;15.67;6.80;;;;;;;;;;5075495;28;20020;-76
2023/08/22 04:10:44;;;;;;;8.93;6.93;;;;;;;;;;5093578;28;20257;-76
2023/08/22 04:13:09;;;;;;;14.67;7.27;;;;;;;;;;5093448;28;20662;-77
2023/08/22 04:15:35;;;;;;;10.68;6.88;;;;;;;;;;5093288;28;20253;-78
2023/08/22 04:18:01;;;;;;;9.73;7.07;;;;;;;;;;5093823;28;20437;-76
2023/08/22 04:20:26;;;;;;;12.35;7.00;;;;;;;;;;5093502;28;20478;-75
2023/08/22 04:22:51;;;;;;;14.77;6.55;;;;;;;;;;5075335;28;20537;-75
2023/08/22 04:25:17;;;;;;;12.60;7.03;;;;;;;;;;5093164;28;20051;-76
2023/08/22 04:27:42;;;;;;;12.57;7.30;;;;;;;;;;5075189;28;20244;-76
2023/08/22 04:30:07;;;;;;;15.17;7.30;;;;;;;;;;5093439;28;20087;-76
2023/08/22 04:32:32;;;;;;;10.35;6.95;;;;;;;;;;5074932;28;20272;-76
2023/08/22 04:34:58;;;;;;;9.43;7.13;;;;;;;;;;5092973;28;20024;-75
2023/08/22 04:37:23;;;;;;;10.60;7.40;;;;;;;;;;5093059;28;20347;-77
2023/08/22 04:39:48;;;;;;;13.93;7.28;;;;;;;;;;5093015;28;20024;-76
2023/08/22 04:42:14;;;;;;;10.68;6.68;;;;;;;;;;5093009;28;20024;-77
2023/08/22 04:44:39;;;;;;;9.38;6.70;;;;;;;;;;5074937;28;20024;-77
2023/08/22 04:47:04;;;;;;;9.57;6.90;;;;;;;;;;5093175;28;20028;-75
2023/08/22 04:49:30;;;;;;;9.05;7.70;;;;;;;;;;5093230;28;20113;-75
2023/08/22 04:51:55;;;;;;;9.93;7.05;;;;;;;;;;5092928;28;20019;-76
2023/08/22 04:54:20;;;;;;;8.70;6.72;;;;;;;;;;5074744;28;20466;-76
2023/08/22 04:56:45;;;;;;;9.93;7.60;;;;;;;;;;5092780;28;20024;-76
2023/08/22 04:59:11;;;;;;;10.70;7.27;;;;;;;;;;5093001;28;20028;-76
2023/08/22 05:01:36;;;;;;;9.73;6.97;;;;;;;;;;5074498;28;20261;-76
2023/08/22 05:04:01;;;;;;;11.30;7.03;;;;;;;;;;5092688;28;20540;-76
2023/08/22 05:06:26;;;;;;;12.07;7.65;;;;;;;;;;5092927;28;20463;-76
2023/08/22 05:08:52;;;;;;;11.43;7.60;;;;;;;;;;5092789;28;20102;-76
2023/08/22 05:11:17;;;;;;;11.82;7.47;;;;;;;;;;5092619;28;20294;-76
2023/08/22 05:13:42;;;;;;;11.18;7.30;;;;;;;;;;5092513;28;20020;-76
2023/08/22 05:16:08;;;;;;;11.98;7.63;;;;;;;;;;5092412;28;20072;-76
2023/08/22 05:18:33;;;;;;;10.90;7.18;;;;;;;;;;5092912;28;20024;-75
2023/08/22 05:20:58;;;;;;;11.40;7.18;;;;;;;;;;5092518;28;20395;-75
2023/08/22 05:23:23;;;;;;;11.93;7.57;;;;;;;;;;5092675;28;20480;-75
2023/08/22 05:25:49;;;;;;;9.33;6.73;;;;;;;;;;5093845;28;20259;-74
2023/08/22 05:28:14;;;;;;;10.43;7.10;;;;;;;;;;5096615;28;20335;-75
2023/08/22 05:30:39;;;;;;;11.60;6.93;;;;;;;;;;5096558;28;20094;-75
2023/08/22 05:33:05;;;;;;;9.52;7.32;;;;;;;;;;5096278;28;20032;-75
2023/08/22 05:35:31;;;;;;;11.15;7.60;;;;;;;;;;5096357;28;20379;-75
2023/08/22 05:37:56;;;;;;;12.63;6.70;;;;;;;;;;5096812;28;20107;-74
2023/08/22 05:40:21;;;;;;;12.63;6.95;;;;;;;;;;5078594;28;20020;-76
2023/08/22 05:42:47;;;;;;;8.70;6.70;;;;;;;;;;5097128;28;20540;-78
2023/08/22 05:45:12;;;;;;;11.77;7.03;;;;;;;;;;5080474;28;20634;-75
2023/08/22 05:47:38;;;;;;;10.07;6.68;;;;;;;;;;5078898;28;20115;-77
2023/08/22 05:50:04;;;;;;;11.57;7.38;;;;;;;;;;5097478;28;20142;-77
2023/08/22 05:52:30;;;;;;;13.15;7.05;;;;;;;;;;5097372;28;20027;-75
2023/08/22 05:54:55;;;;;;;11.70;7.00;;;;;;;;;;5078906;28;20020;-75
2023/08/22 05:57:22;;;;;;;10.73;7.10;;;;;;;;;;5095713;28;20059;-75
2023/08/22 05:59:48;;;;;;;9.48;6.95;;;;;;;;;;5096189;28;20028;-76
2023/08/22 06:02:13;;;;;;;10.63;7.00;;;;;;;;;;5095740;28;20032;-76
2023/08/22 06:04:38;;;;;;;11.43;7.17;;;;;;;;;;5095775;28;20082;-76
2023/08/22 06:07:04;;;;;;;15.07;6.88;;;;;;;;;;5077970;28;20743;-76
2023/08/22 06:09:29;;;;;;;10.60;7.38;;;;;;;;;;5095907;28;20020;-76
2023/08/22 06:11:54;;;;;;;9.30;7.13;;;;;;;;;;5096021;28;20019;-76
2023/08/22 06:14:19;;;;;;;10.75;7.18;;;;;;;;;;5096107;28;20020;-76
2023/08/22 06:16:45;;;;;;;12.10;6.73;;;;;;;;;;5095686;28;20051;-76
2023/08/22 06:19:10;;;;;;;13.68;7.90;;;;;;;;;;5095919;28;20280;-76
2023/08/22 06:21:35;;;;;;;14.47;7.43;;;;;;;;;;5096094;28;20442;-75
2023/08/22 06:24:00;;;;;;;12.57;7.30;;;;;;;;;;5097333;28;20277;-77
2023/08/22 06:26:26;;;;;;;11.70;6.80;;;;;;;;;;5098341;28;20020;-79
2023/08/22 06:28:51;;;;;;;10.83;7.50;;;;;;;;;;5081307;28;20023;-78
2023/08/22 06:31:17;;;;;;;10.68;7.40;;;;;;;;;;5099009;28;20299;-78
2023/08/22 06:33:42;;;;;;;14.82;7.28;;;;;;;;;;5101351;28;20028;-76
2023/08/22 06:36:08;;;;;;;13.47;7.30;;;;;;;;;;5095589;28;20039;-78
2023/08/22 06:38:33;;;;;;;13.38;7.00;;;;;;;;;;5096320;28;20260;-76
2023/08/22 06:41:04;;;;;;;15.07;7.43;;;;;;;;;;5096044;28;20024;-78
2023/08/22 06:43:29;;;;;;;9.35;6.95;;;;;;;;;;5096231;28;20271;-74
2023/08/22 06:45:57;;;;;;;14.37;7.03;;;;;;;;;;5077364;28;20395;-76
2023/08/22 06:48:23;;;;;;;9.63;6.53;;;;;;;;;;5095285;28;20280;-75
2023/08/22 06:50:51;;;;;;;11.10;6.88;;;;;;;;;;5094980;28;20097;-75
2023/08/22 06:53:16;;;;;;;12.55;6.82;;;;;;;;;;5094799;28;20031;-76
2023/08/22 06:55:45;;;;;;;11.40;6.50;;;;;;;;;;5094778;28;20016;-75
2023/08/22 06:58:10;;;;;;;10.40;6.47;;;;;;;;;;5094395;28;20026;-77
2023/08/22 07:00:36;;;;;;;8.90;6.70;;;;;;;;;;5093375;28;20106;-75
2023/08/22 07:03:01;;;;;;;11.40;6.70;;;;;;;;;;5094731;28;20032;-75
2023/08/22 07:05:26;;;;;;;11.52;7.20;;;;;;;;;;5094538;28;20036;-76
2023/08/22 07:07:52;;;;;;;10.47;6.73;;;;;;;;;;5076498;28;20027;-76
2023/08/22 07:10:17;;;;;;;9.57;6.73;;;;;;;;;;5094630;28;20313;-76
2023/08/22 07:12:42;;;;;;;16.83;6.75;;;;;;;;;;5094522;28;20755;-75
2023/08/22 07:15:08;;;;;;;13.87;6.23;;;;;;;;;;5094410;28;20028;-75
2023/08/22 07:17:35;;;;;;;10.13;6.57;;;;;;;;;;5094232;28;20344;-76
2023/08/22 07:20:00;;;;;;;12.70;6.80;;;;;;;;;;5094542;28;20027;-75
2023/08/22 07:22:25;;;;;;;9.60;6.15;;;;;;;;;;5094635;28;20027;-75
2023/08/22 07:24:50;;;;;;;11.52;7.40;;;;;;;;;;5094153;28;20024;-75
2023/08/22 07:27:16;;;;;;;9.95;6.47;;;;;;;;;;5094315;28;20489;-75
2023/08/22 07:29:41;;;;;;;13.15;6.40;;;;;;;;;;5076204;28;20070;-75
2023/08/22 07:32:08;;;;;;;11.20;6.78;;;;;;;;;;5094391;28;20028;-75
2023/08/22 07:34:33;;;;;;;11.45;6.20;;;;;;;;;;5094375;28;20182;-75
2023/08/22 07:36:58;;;;;;;9.07;6.30;;;;;;;;;;5094025;28;20024;-76
2023/08/22 07:39:24;;;;;;;10.67;6.97;;;;;;;;;;5075627;28;20024;-75
2023/08/22 07:41:49;;;;;;;11.93;5.93;;;;;;;;;;5076153;28;20371;-75
2023/08/22 07:44:14;;;;;;;11.63;6.43;;;;;;;;;;5093965;28;20308;-76
2023/08/22 07:46:40;;;;;;;13.80;6.10;;;;;;;;;;5093882;28;20249;-76
2023/08/22 07:49:05;;;;;;;9.90;5.93;;;;;;;;;;5093268;28;20038;-76
2023/08/22 07:51:31;;;;;;;8.27;5.90;;;;;;;;;;5075532;28;20118;-75
2023/08/22 07:53:56;;;;;;;9.60;5.90;;;;;;;;;;5075679;28;20048;-76
2023/08/22 07:56:22;;;;;;;13.82;6.60;;;;;;;;;;5093697;28;20499;-76
2023/08/22 07:58:48;;;;;;;7.85;5.80;;;;;;;;;;5094098;28;20486;-75
2023/08/22 08:01:13;;;;;;;7.25;5.78;;;;;;;;;;5093604;28;20020;-75
2023/08/22 08:03:38;;;;;;;11.70;5.93;;;;;;;;;;5093753;28;20055;-76
2023/08/22 08:06:04;;;;;;;9.20;6.37;;;;;;;;;;5093448;28;20016;-76
2023/08/22 08:08:29;;;;;;;12.50;6.13;;;;;;;;;;5093539;28;20389;-76
2023/08/22 08:10:55;;;;;;;9.32;5.90;;;;;;;;;;5075119;28;20024;-77
2023/08/22 08:13:20;;;;;;;8.30;5.85;;;;;;;;;;5093541;28;20031;-76
2023/08/22 08:15:45;;;;;;;9.83;5.80;;;;;;;;;;5093348;28;20425;-76
2023/08/22 08:18:10;;;;;;;6.33;5.40;;;;;;;;;;5093693;28;20252;-76
2023/08/22 08:20:36;;;;;;;7.13;5.80;;;;;;;;;;5093823;28;20267;-75
2023/08/22 08:23:02;;;;;;;9.18;6.00;;;;;;;;;;5075242;28;20326;-76
2023/08/22 08:25:28;;;;;;;7.80;6.00;;;;;;;;;;5074920;28;20027;-75
2023/08/22 08:27:54;;;;;;;11.68;5.65;;;;;;;;;;5093354;28;20482;-75
2023/08/22 08:30:20;;;;;;;9.57;5.53;;;;;;;;;;5093550;28;20028;-75
2023/08/22 08:32:45;;;;;;;8.43;5.95;;;;;;;;;;5074767;28;20066;-76
2023/08/22 08:35:11;;;;;;;12.23;5.97;;;;;;;;;;5092878;28;20483;-76
2023/08/22 08:37:36;;;;;;;10.10;6.20;;;;;;;;;;5093308;28;20288;-76
2023/08/22 08:40:05;;;;;;;12.48;6.28;;;;;;;;;;5074842;28;20534;-76
2023/08/22 08:42:31;;;;;;;10.18;5.97;;;;;;;;;;5093513;28;20031;-75
2023/08/22 08:44:56;;;;;;;9.00;5.70;;;;;;;;;;5092829;28;20024;-75
2023/08/22 08:47:22;;;;;;;8.10;6.40;;;;;;;;;;5074934;28;20024;-76
2023/08/22 08:49:47;;;;;;;8.30;5.80;;;;;;;;;;5093145;28;20028;-75
2023/08/22 08:52:12;;;;;;;11.57;5.90;;;;;;;;;;5074712;28;20029;-75
2023/08/22 08:54:39;;;;;;;8.15;5.88;;;;;;;;;;5093048;28;20738;-76
2023/08/22 08:57:04;;;;;;;8.23;5.82;;;;;;;;;;5074680;28;20034;-77
2023/08/22 08:59:29;;;;;;;11.35;5.65;;;;;;;;;;5092589;28;20020;-76
2023/08/22 09:01:56;;;;;;;6.72;5.47;;;;;;;;;;5092673;28;20031;-75
2023/08/22 09:04:22;;;;;;;7.82;5.32;;;;;;;;;;5074453;28;20024;-76
2023/08/22 09:06:47;;;;;;;9.15;5.85;;;;;;;;;;5093196;28;20020;-75
2023/08/22 09:09:14;;;;;;;11.88;5.43;;;;;;;;;;5074586;28;20027;-74
2023/08/22 09:11:47;;;;;;;9.02;5.60;;;;;;;;;;5092560;28;20035;-77
2023/08/22 09:14:17;;;;;;;7.65;5.88;;;;;;;;;;5092638;28;20028;-76
2023/08/22 09:16:43;;;;;;;9.63;5.90;;;;;;;;;;5092621;28;20103;-76
2023/08/22 09:19:11;;;;;;;8.77;5.67;;;;;;;;;;5074560;28;20444;-76
2023/08/22 09:21:36;;;;;;;11.77;5.78;;;;;;;;;;5092363;28;20067;-76
2023/08/22 09:24:09;;;;;;;9.27;5.70;;;;;;;;;;5074410;28;20047;-76
2023/08/22 09:26:35;;;;;;;10.20;5.50;;;;;;;;;;5074414;28;20256;-75
2023/08/22 09:29:05;;;;;;;6.38;5.15;;;;;;;;;;5092753;28;20539;-75
2023/08/22 09:31:32;;;;;;;12.48;5.28;;;;;;;;;;5074230;28;20049;-77
2023/08/22 09:33:57;;;;;;;8.93;5.35;;;;;;;;;;5092336;28;20016;-76
2023/08/22 09:36:23;;;;;;;6.55;4.75;;;;;;;;;;5092285;28;20057;-77
2023/08/22 09:38:53;;;;;;;10.13;4.93;;;;;;;;;;5092339;28;20027;-76
2023/08/22 09:41:23;;;;;;;9.95;6.43;;;;;;;;;;5092544;28;20253;-76
2023/08/22 09:43:51;;;;;;;8.63;5.18;;;;;;;;;;5092562;28;20024;-74
2023/08/22 09:46:18;;;;;;;7.85;5.43;;;;;;;;;;5092049;28;20368;-75
2023/08/22 09:48:43;;;;;;;8.60;4.90;;;;;;;;;;5074258;28;20050;-75
2023/08/22 09:51:09;;;;;;;9.20;5.55;;;;;;;;;;5092165;28;20394;-75
2023/08/22 09:53:36;;;;;;;8.52;5.55;;;;;;;;;;5092561;28;20359;-74
2023/08/22 09:56:02;;;;;;;7.55;5.55;;;;;;;;;;5074150;28;20092;-74
2023/08/22 09:58:29;;;;;;;7.50;4.70;;;;;;;;;;5092600;28;20044;-76
2023/08/22 10:00:55;;;;;;;7.53;5.43;;;;;;;;;;5074006;28;20028;-73
2023/08/22 10:03:21;;;;;;;11.43;5.25;;;;;;;;;;5092440;28;20035;-75
2023/08/22 10:05:51;;;;;;;9.98;5.63;;;;;;;;;;5092568;28;20024;-76
2023/08/22 10:08:16;;;;;;;6.82;5.40;;;;;;;;;;5091976;28;20020;-77
2023/08/22 10:10:42;;;;;;;8.13;5.30;;;;;;;;;;5092186;28;20073;-76
2023/08/22 10:13:09;;;;;;;6.32;5.00;;;;;;;;;;5077369;28;20766;-76
2023/08/22 10:15:36;;;;;;;9.10;4.93;;;;;;;;;;5095828;28;20028;-76
2023/08/22 10:18:02;;;;;;;8.63;4.70;;;;;;;;;;5095828;28;20453;-76
2023/08/22 10:20:27;;;;;;;7.78;4.38;;;;;;;;;;5095711;28;20020;-75
2023/08/22 10:22:53;;;;;;;7.50;4.68;;;;;;;;;;5095632;28;20149;-75
2023/08/22 10:25:18;;;;;;;5.73;4.13;;;;;;;;;;5077154;28;20406;-75
2023/08/22 10:27:47;;;;;;;8.90;5.00;;;;;;;;;;5077341;28;20264;-75
2023/08/22 10:30:12;;;;;;;9.82;4.63;;;;;;;;;;5077205;28;20016;-76
2023/08/22 10:32:37;;;;;;;8.07;4.70;;;;;;;;;;5095503;28;20050;-75
2023/08/22 10:35:04;;;;;;;6.22;4.93;;;;;;;;;;5077025;28;20077;-75
2023/08/22 10:37:29;;;;;;;7.93;4.85;;;;;;;;;;5095220;28;20020;-76
2023/08/22 10:39:58;;;;;;;9.15;4.80;;;;;;;;;;5077446;28;20020;-75
2023/08/22 10:42:24;;;;;;;5.38;4.28;;;;;;;;;;5077343;28;20020;-75
2023/08/22 10:44:50;;;;;;;7.05;4.15;;;;;;;;;;5095365;28;20020;-75
2023/08/22 10:47:17;;;;;;;7.80;4.43;;;;;;;;;;5094659;28;20024;-76
2023/08/22 10:49:42;;;;;;;7.68;4.05;;;;;;;;;;5076883;28;20111;-75
2023/08/22 10:52:11;;;;;;;6.72;4.00;;;;;;;;;;5095095;28;20114;-75
2023/08/22 10:55:00;;;;;;;8.40;3.55;;;;;;;;;;5095083;28;20012;-75
2023/08/22 10:57:26;;;;;;;6.45;3.60;;;;;;;;;;5095384;28;20023;-75
2023/08/22 10:59:58;;;;;;;5.57;3.17;;;;;;;;;;5094858;28;20024;-75
2023/08/22 11:02:27;;;;;;;4.82;3.00;;;;;;;;;;5095036;28;20099;-74
2023/08/22 11:04:55;;;;;;;5.55;2.58;;;;;;;;;;5094745;28;20096;-76
2023/08/22 11:07:21;;;;;;;6.75;3.10;;;;;;;;;;5094780;28;20364;-75
2023/08/22 11:09:48;;;;;;;4.18;2.97;;;;;;;;;;5076521;28;20044;-76
2023/08/22 11:12:18;;;;;;;6.60;3.00;;;;;;;;;;5094838;28;20032;-77
2023/08/22 11:14:47;;;;;;;8.48;3.30;;;;;;;;;;5094734;28;20020;-76
2023/08/22 11:17:14;;;;;;;4.18;2.90;;;;;;;;;;5094521;28;20027;-75
2023/08/22 11:19:39;;;;;;;4.35;2.80;;;;;;;;;;5094391;28;20027;-76
2023/08/22 11:22:06;;;;;;;5.18;2.90;;;;;;;;;;5094473;28;20111;-75
2023/08/22 11:24:31;;;;;;;3.83;2.72;;;;;;;;;;5075071;28;20024;-74
2023/08/22 11:26:56;;;;;;;3.17;2.70;;;;;;;;;;5094234;28;20032;-75
2023/08/22 11:29:22;;;;;;;3.58;2.80;;;;;;;;;;5076234;28;20458;-75
2023/08/22 11:31:48;;;;;;;4.45;2.55;;;;;;;;;;5094350;28;20030;-75
2023/08/22 11:34:13;;;;;;;6.15;2.50;;;;;;;;;;5094342;28;20069;-75
2023/08/22 11:36:39;;;;;;;5.35;2.70;;;;;;;;;;5075857;28;20039;-76
2023/08/22 11:39:07;;;;;;;5.75;2.28;;;;;;;;;;5094110;28;20035;-75
2023/08/22 11:41:33;;;;;;;5.22;2.45;;;;;;;;;;5094136;28;20511;-75
2023/08/22 11:44:00;;;;;;;8.02;2.60;;;;;;;;;;5094065;28;20032;-76
2023/08/22 11:46:26;;;;;;;7.35;2.40;;;;;;;;;;5094209;28;20020;-75
2023/08/22 11:48:52;;;;;;;4.93;2.60;;;;;;;;;;5075834;28;20372;-76
2023/08/22 11:51:19;;;;;;;4.55;2.60;;;;;;;;;;5075768;28;20050;-75
2023/08/22 11:53:46;;;;;;;5.03;2.53;;;;;;;;;;5093771;28;20077;-75
2023/08/22 11:56:12;;;;;;;7.20;2.60;;;;;;;;;;5075485;28;20042;-75
2023/08/22 11:58:43;;;;;;;3.90;2.40;;;;;;;;;;5093589;28;20028;-75
2023/08/22 12:01:09;;;;;;;3.42;2.22;;;;;;;;;;5094339;28;20368;-75
2023/08/22 12:03:43;;;;;;;3.63;2.25;;;;;;;;;;5093556;28;20028;-75
2023/08/22 12:06:13;;;;;;;5.05;2.55;;;;;;;;;;5093942;28;20024;-75
2023/08/22 12:08:39;;;;;;;7.05;3.45;;;;;;;;;;5093840;28;20020;-75
2023/08/22 12:11:04;;;;;;;5.80;2.58;;;;;;;;;;5093580;28;20024;-75
2023/08/22 12:13:29;;;;;;;4.22;2.45;;;;;;;;;;5094002;28;20024;-76
2023/08/22 12:15:55;;;;;;;4.93;2.40;;;;;;;;;;5093345;28;20023;-76
2023/08/22 12:18:30;;;;;;;9.15;2.60;;;;;;;;;;5093390;28;20028;-75
2023/08/22 12:20:56;;;;;;;4.90;2.92;;;;;;;;;;5093294;28;20020;-76
2023/08/22 12:23:21;;;;;;;3.13;2.67;;;;;;;;;;5093438;28;20080;-76
2023/08/22 12:25:46;;;;;;;7.27;2.97;;;;;;;;;;5093169;28;20111;-76
2023/08/22 12:28:14;;;;;;;13.83;2.67;;;;;;;;;;5093259;28;20268;-76
2023/08/22 12:30:39;;;;;;;4.25;2.63;;;;;;;;;;5093155;28;20263;-77
2023/08/22 12:33:05;;;;;;;7.57;2.80;;;;;;;;;;5075224;28;20020;-75
2023/08/22 12:35:38;;;;;;;4.85;2.72;;;;;;;;;;5092773;28;20416;-75
2023/08/22 12:38:03;;;;;;;4.70;2.47;;;;;;;;;;5093053;28;20161;-76
2023/08/22 12:40:29;;;;;;;7.55;2.55;;;;;;;;;;5093486;28;20292;-76
2023/08/22 12:42:54;;;;;;;3.80;2.40;;;;;;;;;;5093330;28;20480;-76
2023/08/22 12:45:21;;;;;;;3.90;2.35;;;;;;;;;;5092822;28;20098;-75
2023/08/22 12:47:48;;;;;;;6.18;2.67;;;;;;;;;;5092836;28;20043;-75
2023/08/22 12:50:14;;;;;;;3.47;2.33;;;;;;;;;;5093015;28;20229;-75
2023/08/22 12:52:39;;;;;;;4.43;2.80;;;;;;;;;;5092821;28;20560;-75
2023/08/22 12:55:08;;;;;;;3.40;2.40;;;;;;;;;;5093066;28;20020;-75
2023/08/22 12:57:35;;;;;;;5.43;2.30;;;;;;;;;;5092954;28;20744;-75
2023/08/22 13:00:00;;;;;;;5.85;2.38;;;;;;;;;;5074631;28;20106;-75
2023/08/22 13:02:25;;;;;;;4.03;2.60;;;;;;;;;;5074506;28;20062;-76
2023/08/22 13:04:50;;;;;;;3.83;2.40;;;;;;;;;;5074707;28;20019;-76
2023/08/22 13:07:16;;;;;;;6.75;2.60;;;;;;;;;;5092487;28;20244;-75
2023/08/22 13:09:41;;;;;;;5.30;2.70;;;;;;;;;;5092630;28;20039;-75
2023/08/22 13:12:06;;;;;;;4.87;2.80;;;;;;;;;;5092886;28;20106;-75
2023/08/22 13:14:32;;;;;;;4.30;2.28;;;;;;;;;;5092562;28;20249;-76
2023/08/22 13:16:57;;;;;;;7.63;2.85;;;;;;;;;;5092541;28;20020;-77
2023/08/22 13:19:22;;;;;;;7.70;2.40;;;;;;;;;;5092762;28;20471;-75
2023/08/22 13:21:47;;;;;;;4.43;2.57;;;;;;;;;;5092555;28;20389;-75
2023/08/22 13:24:13;;;;;;;4.60;2.40;;;;;;;;;;5092769;28;20281;-76
2023/08/22 13:26:41;;;;;;;7.90;2.60;;;;;;;;;;5092728;28;20027;-76
2023/08/22 13:29:06;;;;;;;4.05;2.72;;;;;;;;;;5092541;28;20047;-75
2023/08/22 13:31:33;;;;;;;4.20;2.85;;;;;;;;;;5074520;28;20478;-75
2023/08/22 13:33:58;;;;;;;8.40;3.35;;;;;;;;;;5092526;28;20077;-75
2023/08/22 13:36:23;;;;;;;5.65;2.60;;;;;;;;;;5074487;28;20028;-75
2023/08/22 13:38:48;;;;;;;6.05;2.72;;;;;;;;;;5092728;28;20028;-76
2023/08/22 13:41:14;;;;;;;5.17;2.57;;;;;;;;;;5092528;28;20066;-76
2023/08/22 13:43:39;;;;;;;7.63;2.53;;;;;;;;;;5092390;28;20256;-76
2023/08/22 13:46:09;;;;;;;8.33;2.77;;;;;;;;;;5092196;28;20355;-75
2023/08/22 13:48:35;;;;;;;5.07;3.08;;;;;;;;;;5096313;28;20299;-75
2023/08/22 13:51:00;;;;;;;5.13;2.80;;;;;;;;;;5096261;28;20023;-75
2023/08/22 13:53:29;;;;;;;4.85;2.80;;;;;;;;;;5096274;28;20028;-75
2023/08/22 13:55:54;;;;;;;5.03;3.80;;;;;;;;;;5096169;28;20096;-75
2023/08/22 13:58:20;;;;;;;6.25;2.50;;;;;;;;;;5096168;28;20488;-76
2023/08/22 14:00:45;;;;;;;3.67;2.70;;;;;;;;;;5096063;28;20028;-76
2023/08/22 14:03:10;;;;;;;4.60;2.73;;;;;;;;;;5096100;28;20313;-76
2023/08/22 14:05:35;;;;;;;8.63;3.00;;;;;;;;;;5095841;28;20731;-76
2023/08/22 14:08:00;;;;;;;3.95;2.70;;;;;;;;;;5096303;28;20276;-76
2023/08/22 14:10:26;;;;;;;5.57;2.77;;;;;;;;;;5095946;28;20475;-76
2023/08/22 14:12:52;;;;;;;2.70;2.50;;;;;;;;;;5096445;28;20261;-76
2023/08/22 14:15:18;;;;;;;4.57;2.78;;;;;;;;;;5095793;28;20288;-76
2023/08/22 14:17:43;;;;;;;5.70;2.77;;;;;;;;;;5095771;28;20124;-76
2023/08/22 14:20:08;;;;;;;5.00;2.50;;;;;;;;;;5095744;28;20260;-75
2023/08/22 14:22:34;;;;;;;4.85;2.90;;;;;;;;;;5095805;28;20669;-76
2023/08/22 14:24:59;;;;;;;4.97;2.60;;;;;;;;;;5077302;28;20059;-74
2023/08/22 14:27:24;;;;;;;4.47;2.43;;;;;;;;;;5095804;28;20106;-75
2023/08/22 14:29:49;;;;;;;4.00;2.63;;;;;;;;;;5095993;28;20732;-76
2023/08/22 14:32:15;;;;;;;4.85;3.00;;;;;;;;;;5095635;28;20259;-76